Air Navigation Services of Czech Republic
Airport: LKCV Updated:  20.02.2017 20:06:06  UTC
 METAR LKCV 20.02. 20:00 ...
METAR LKCV 202000Z 24005KT 9999 -RA BKN035 OVC060 06/03 Q1013 NOSIG=
 TAF LKCV 20.02. 17:00 ...
TAF LKCV 201700Z 2018/2118 24010G20KT 9999 RA BKN025 OVC035      TEMPO 2100/2103 26015G25KT NSW BKN040      BECMG 2116/2118 NSW BKN040=